sensor_id;sensor_type;location;lat;lon;timestamp;pressure;altitude;pressure_sealevel;temperature;humidity
48796;BME280;34607;48.520;-1.330;2023-09-19T07:37:54;100039.16;;;15.58;100.00
48796;BME280;34607;48.520;-1.330;2023-09-19T07:40:22;100051.25;;;15.70;100.00
48796;BME280;34607;48.520;-1.330;2023-09-19T07:42:49;100037.38;;;15.65;100.00
48796;BME280;34607;48.520;-1.330;2023-09-19T07:45:16;100030.50;;;15.54;100.00
48796;BME280;34607;48.520;-1.330;2023-09-19T07:47:44;100013.22;;;15.41;100.00
48796;BME280;34607;48.520;-1.330;2023-09-19T07:50:12;100013.19;;;15.44;100.00
48796;BME280;34607;48.520;-1.330;2023-09-19T07:52:39;100035.66;;;15.59;100.00
48796;BME280;34607;48.520;-1.330;2023-09-19T07:55:08;100028.69;;;15.63;100.00
48796;BME280;34607;48.520;-1.330;2023-09-19T07:57:37;99994.91;;;15.46;100.00
48796;BME280;34607;48.520;-1.330;2023-09-19T08:00:05;100033.84;;;15.69;100.00
48796;BME280;34607;48.520;-1.330;2023-09-19T08:02:37;100037.34;;;15.66;100.00
48796;BME280;34607;48.520;-1.330;2023-09-19T08:05:04;100042.56;;;15.68;100.00
48796;BME280;34607;48.520;-1.330;2023-09-19T08:07:35;100029.72;;;15.45;100.00
48796;BME280;34607;48.520;-1.330;2023-09-19T08:10:03;100041.78;;;15.58;100.00
48796;BME280;34607;48.520;-1.330;2023-09-19T08:12:34;100033.84;;;15.69;100.00
48796;BME280;34607;48.520;-1.330;2023-09-19T08:15:02;100039.88;;;15.74;100.00
48796;BME280;34607;48.520;-1.330;2023-09-19T08:17:33;100040.56;;;15.93;100.00
48796;BME280;34607;48.520;-1.330;2023-09-19T08:20:01;100022.84;;;16.23;100.00
48796;BME280;34607;48.520;-1.330;2023-09-19T08:22:30;100045.72;;;16.71;100.00
48796;BME280;34607;48.520;-1.330;2023-09-19T08:24:58;100051.44;;;17.00;100.00
48796;BME280;34607;48.520;-1.330;2023-09-19T08:27:25;100042.34;;;17.25;100.00
48796;BME280;34607;48.520;-1.330;2023-09-19T08:29:54;100037.88;;;17.31;100.00
48796;BME280;34607;48.520;-1.330;2023-09-19T08:32:21;100044.47;;;17.55;100.00
48796;BME280;34607;48.520;-1.330;2023-09-19T08:34:51;100035.94;;;17.94;100.00
48796;BME280;34607;48.520;-1.330;2023-09-19T08:37:18;100008.50;;;18.13;100.00
48796;BME280;34607;48.520;-1.330;2023-09-19T08:39:45;100038.50;;;18.42;100.00
48796;BME280;34607;48.520;-1.330;2023-09-19T08:42:12;100035.91;;;18.39;98.81
48796;BME280;34607;48.520;-1.330;2023-09-19T08:44:42;100036.09;;;18.30;99.32
48796;BME280;34607;48.520;-1.330;2023-09-19T08:47:14;100041.50;;;18.22;99.81
48796;BME280;34607;48.520;-1.330;2023-09-19T08:49:53;100036.16;;;18.28;99.78
48796;BME280;34607;48.520;-1.330;2023-09-19T08:52:28;100041.03;;;18.44;99.98
48796;BME280;34607;48.520;-1.330;2023-09-19T08:54:58;100049.19;;;18.72;99.33
48796;BME280;34607;48.520;-1.330;2023-09-19T08:57:33;100036.06;;;19.13;98.60
48796;BME280;34607;48.520;-1.330;2023-09-19T09:00:01;100040.66;;;19.73;97.20
48796;BME280;34607;48.520;-1.330;2023-09-19T09:02:33;100029.38;;;20.02;95.35
48796;BME280;34607;48.520;-1.330;2023-09-19T09:05:01;100039.03;;;20.33;94.30
48796;BME280;34607;48.520;-1.330;2023-09-19T09:07:32;100018.31;;;20.52;92.27
48796;BME280;34607;48.520;-1.330;2023-09-19T09:10:00;100033.50;;;20.74;91.69
48796;BME280;34607;48.520;-1.330;2023-09-19T09:12:30;100017.28;;;20.58;91.43
48796;BME280;34607;48.520;-1.330;2023-09-19T09:14:57;100019.19;;;20.53;91.11
48796;BME280;34607;48.520;-1.330;2023-09-19T09:17:24;100027.72;;;20.59;90.51
48796;BME280;34607;48.520;-1.330;2023-09-19T09:19:53;100025.75;;;20.98;91.01
48796;BME280;34607;48.520;-1.330;2023-09-19T09:22:21;100032.44;;;21.08;89.01
48796;BME280;34607;48.520;-1.330;2023-09-19T09:24:52;100035.13;;;21.06;87.97
48796;BME280;34607;48.520;-1.330;2023-09-19T09:27:22;100026.94;;;21.14;87.14
48796;BME280;34607;48.520;-1.330;2023-09-19T09:29:51;100013.09;;;21.36;87.13
48796;BME280;34607;48.520;-1.330;2023-09-19T09:32:23;99979.38;;;21.20;85.77
48796;BME280;34607;48.520;-1.330;2023-09-19T09:34:53;100024.09;;;21.22;85.63
48796;BME280;34607;48.520;-1.330;2023-09-19T09:37:21;100017.69;;;21.29;86.62
48796;BME280;34607;48.520;-1.330;2023-09-19T09:39:51;100010.34;;;21.65;85.66
48796;BME280;34607;48.520;-1.330;2023-09-19T09:42:30;100006.56;;;21.73;83.69
48796;BME280;34607;48.520;-1.330;2023-09-19T09:45:16;100000.09;;;21.81;84.57
48796;BME280;34607;48.520;-1.330;2023-09-19T09:47:44;100004.44;;;22.07;83.98
48796;BME280;34607;48.520;-1.330;2023-09-19T09:50:26;100001.75;;;22.09;82.20
48796;BME280;34607;48.520;-1.330;2023-09-19T09:53:19;100001.91;;;22.04;83.60
48796;BME280;34607;48.520;-1.330;2023-09-19T09:56:03;99988.09;;;21.98;83.04
48796;BME280;34607;48.520;-1.330;2023-09-19T09:58:32;99988.19;;;21.95;83.15
48796;BME280;34607;48.520;-1.330;2023-09-19T10:01:01;99999.78;;;21.65;83.07
48796;BME280;34607;48.520;-1.330;2023-09-19T10:03:36;100004.00;;;21.44;84.61
48796;BME280;34607;48.520;-1.330;2023-09-19T10:06:10;100002.34;;;21.15;83.66
48796;BME280;34607;48.520;-1.330;2023-09-19T10:09:03;100003.81;;;20.69;83.51
48796;BME280;34607;48.520;-1.330;2023-09-19T10:11:41;99994.78;;;20.77;86.08
48796;BME280;34607;48.520;-1.330;2023-09-19T10:14:11;99992.44;;;20.68;85.25
48796;BME280;34607;48.520;-1.330;2023-09-19T10:16:40;99993.50;;;20.61;84.91
48796;BME280;34607;48.520;-1.330;2023-09-19T10:19:10;99991.47;;;20.71;85.79
48796;BME280;34607;48.520;-1.330;2023-09-19T10:21:39;99990.06;;;20.89;84.99
48796;BME280;34607;48.520;-1.330;2023-09-19T10:24:09;99995.22;;;20.90;84.41
48796;BME280;34607;48.520;-1.330;2023-09-19T10:26:38;99984.88;;;20.86;84.76
48796;BME280;34607;48.520;-1.330;2023-09-19T10:29:09;99982.06;;;20.90;85.07
48796;BME280;34607;48.520;-1.330;2023-09-19T10:31:38;99990.22;;;20.83;84.89
48796;BME280;34607;48.520;-1.330;2023-09-19T10:34:08;99991.66;;;20.65;85.74
48796;BME280;34607;48.520;-1.330;2023-09-19T10:36:36;99987.66;;;20.81;86.09
48796;BME280;34607;48.520;-1.330;2023-09-19T10:39:06;99983.84;;;20.63;84.84
48796;BME280;34607;48.520;-1.330;2023-09-19T10:41:34;99978.38;;;20.69;85.34
48796;BME280;34607;48.520;-1.330;2023-09-19T10:44:03;99978.28;;;20.72;84.88
48796;BME280;34607;48.520;-1.330;2023-09-19T10:46:32;99986.41;;;20.65;85.04
48796;BME280;34607;48.520;-1.330;2023-09-19T10:49:00;99982.53;;;20.76;85.92
48796;BME280;34607;48.520;-1.330;2023-09-19T10:51:31;99978.59;;;20.90;84.62
48796;BME280;34607;48.520;-1.330;2023-09-19T10:54:08;99976.94;;;20.87;84.60
48796;BME280;34607;48.520;-1.330;2023-09-19T10:56:42;99986.50;;;20.90;85.52
48796;BME280;34607;48.520;-1.330;2023-09-19T10:59:13;99978.44;;;20.94;85.00
48796;BME280;34607;48.520;-1.330;2023-09-19T11:01:42;99979.41;;;20.92;85.08
48796;BME280;34607;48.520;-1.330;2023-09-19T11:04:23;99981.44;;;20.84;85.01
48796;BME280;34607;48.520;-1.330;2023-09-19T11:07:04;99968.69;;;20.70;83.96
48796;BME280;34607;48.520;-1.330;2023-09-19T11:09:45;99968.88;;;20.92;85.37
48796;BME280;34607;48.520;-1.330;2023-09-19T11:12:48;99972.63;;;21.11;84.64
48796;BME280;34607;48.520;-1.330;2023-09-19T11:21:54;99983.50;;;21.01;86.11
48796;BME280;34607;48.520;-1.330;2023-09-19T11:24:29;99973.44;;;21.13;85.36
48796;BME280;34607;48.520;-1.330;2023-09-19T11:27:11;99976.31;;;21.06;84.24
48796;BME280;34607;48.520;-1.330;2023-09-19T11:29:39;99959.09;;;21.22;83.35
48796;BME280;34607;48.520;-1.330;2023-09-19T11:32:06;99953.97;;;21.44;82.50
48796;BME280;34607;48.520;-1.330;2023-09-19T11:34:45;99925.09;;;21.41;80.61
48796;BME280;34607;48.520;-1.330;2023-09-19T11:40:37;99948.19;;;21.60;81.45
48796;BME280;34607;48.520;-1.330;2023-09-19T11:43:33;99941.22;;;21.57;80.17
48796;BME280;34607;48.520;-1.330;2023-09-19T11:46:05;99942.63;;;21.67;81.10
48796;BME280;34607;48.520;-1.330;2023-09-19T11:48:32;99941.84;;;21.89;80.13
48796;BME280;34607;48.520;-1.330;2023-09-19T11:51:19;99913.63;;;21.67;78.93
48796;BME280;34607;48.520;-1.330;2023-09-19T11:53:48;99933.41;;;21.79;79.04
48796;BME280;34607;48.520;-1.330;2023-09-19T11:56:17;99931.19;;;21.92;79.11
48796;BME280;34607;48.520;-1.330;2023-09-19T11:58:46;99943.53;;;22.14;77.63
48796;BME280;34607;48.520;-1.330;2023-09-19T12:01:16;99917.75;;;22.22;77.26
48796;BME280;34607;48.520;-1.330;2023-09-19T12:03:53;99945.47;;;22.56;76.89
48796;BME280;34607;48.520;-1.330;2023-09-19T12:06:21;99934.47;;;22.67;77.21
48796;BME280;34607;48.520;-1.330;2023-09-19T12:08:49;99946.78;;;22.68;76.59
48796;BME280;34607;48.520;-1.330;2023-09-19T12:11:21;99934.97;;;22.54;75.72
48796;BME280;34607;48.520;-1.330;2023-09-19T12:13:50;99924.34;;;22.34;74.91
48796;BME280;34607;48.520;-1.330;2023-09-19T12:16:20;99929.94;;;22.02;74.98
48796;BME280;34607;48.520;-1.330;2023-09-19T12:18:49;99926.81;;;21.91;75.93
48796;BME280;34607;48.520;-1.330;2023-09-19T12:21:28;99932.19;;;21.88;75.31
48796;BME280;34607;48.520;-1.330;2023-09-19T12:24:04;99932.78;;;21.73;76.17
48796;BME280;34607;48.520;-1.330;2023-09-19T12:26:42;99938.91;;;21.73;75.71
48796;BME280;34607;48.520;-1.330;2023-09-19T12:29:17;99931.56;;;21.58;76.81
48796;BME280;34607;48.520;-1.330;2023-09-19T12:31:48;99920.44;;;21.49;76.43
48796;BME280;34607;48.520;-1.330;2023-09-19T12:34:18;99931.88;;;21.48;76.82
48796;BME280;34607;48.520;-1.330;2023-09-19T12:36:46;99933.72;;;21.46;77.77
48796;BME280;34607;48.520;-1.330;2023-09-19T12:39:23;99929.31;;;21.45;77.30
48796;BME280;34607;48.520;-1.330;2023-09-19T12:41:52;99916.16;;;21.45;78.14
48796;BME280;34607;48.520;-1.330;2023-09-19T12:44:21;99929.72;;;21.60;78.40
48796;BME280;34607;48.520;-1.330;2023-09-19T12:46:51;99937.25;;;21.70;78.38
48796;BME280;34607;48.520;-1.330;2023-09-19T12:49:20;99932.56;;;21.79;78.50
48796;BME280;34607;48.520;-1.330;2023-09-19T12:51:48;99914.78;;;21.60;77.34
48796;BME280;34607;48.520;-1.330;2023-09-19T12:54:16;99928.94;;;21.58;77.31
48796;BME280;34607;48.520;-1.330;2023-09-19T12:56:44;99915.28;;;21.45;77.14
48796;BME280;34607;48.520;-1.330;2023-09-19T12:59:14;99923.19;;;21.46;76.97
48796;BME280;34607;48.520;-1.330;2023-09-19T13:01:43;99926.47;;;21.53;76.62
48796;BME280;34607;48.520;-1.330;2023-09-19T13:04:13;99910.69;;;21.51;77.35
48796;BME280;34607;48.520;-1.330;2023-09-19T13:06:44;99909.22;;;21.43;77.26
48796;BME280;34607;48.520;-1.330;2023-09-19T13:09:14;99900.31;;;21.47;76.68
48796;BME280;34607;48.520;-1.330;2023-09-19T13:11:42;99907.22;;;21.51;77.35
48796;BME280;34607;48.520;-1.330;2023-09-19T13:14:18;99910.16;;;21.67;77.22
48796;BME280;34607;48.520;-1.330;2023-09-19T13:17:00;99899.59;;;21.67;76.11
48796;BME280;34607;48.520;-1.330;2023-09-19T13:19:40;99908.09;;;21.75;75.74
48796;BME280;34607;48.520;-1.330;2023-09-19T13:22:37;99901.88;;;21.76;75.34
48796;BME280;34607;48.520;-1.330;2023-09-19T13:25:06;99907.69;;;21.86;76.36
48796;BME280;34607;48.520;-1.330;2023-09-19T13:27:37;99905.69;;;21.93;76.04
48796;BME280;34607;48.520;-1.330;2023-09-19T13:30:05;99908.84;;;22.02;75.72
48796;BME280;34607;48.520;-1.330;2023-09-19T13:32:34;99906.78;;;22.11;76.56
48796;BME280;34607;48.520;-1.330;2023-09-19T13:35:01;99901.13;;;22.20;76.20
48796;BME280;34607;48.520;-1.330;2023-09-19T13:37:28;99905.09;;;22.32;75.11
48796;BME280;34607;48.520;-1.330;2023-09-19T13:39:55;99905.78;;;22.13;74.72
48796;BME280;34607;48.520;-1.330;2023-09-19T13:42:24;99906.94;;;22.06;74.13
48796;BME280;34607;48.520;-1.330;2023-09-19T13:44:55;99901.59;;;22.07;74.60
48796;BME280;34607;48.520;-1.330;2023-09-19T13:47:22;99889.13;;;21.89;74.53
48796;BME280;34607;48.520;-1.330;2023-09-19T13:49:53;99905.97;;;21.85;74.96
48796;BME280;34607;48.520;-1.330;2023-09-19T13:52:21;99898.50;;;21.96;74.77
48796;BME280;34607;48.520;-1.330;2023-09-19T13:54:49;99910.16;;;22.14;74.23
48796;BME280;34607;48.520;-1.330;2023-09-19T13:57:16;99907.94;;;22.25;74.32
48796;BME280;34607;48.520;-1.330;2023-09-19T13:59:44;99905.09;;;22.32;74.53
48796;BME280;34607;48.520;-1.330;2023-09-19T14:02:11;99894.69;;;22.27;74.33
48796;BME280;34607;48.520;-1.330;2023-09-19T14:04:39;99898.22;;;22.04;73.72
48796;BME280;34607;48.520;-1.330;2023-09-19T14:07:08;99907.16;;;22.00;74.34
48796;BME280;34607;48.520;-1.330;2023-09-19T14:09:36;99889.69;;;21.74;74.85
48796;BME280;34607;48.520;-1.330;2023-09-19T14:12:04;99890.78;;;21.68;75.30
48796;BME280;34607;48.520;-1.330;2023-09-19T14:14:31;99885.19;;;21.52;75.28
48796;BME280;34607;48.520;-1.330;2023-09-19T14:16:58;99891.06;;;21.60;75.20
48796;BME280;34607;48.520;-1.330;2023-09-19T14:19:26;99893.06;;;21.54;76.28
48796;BME280;34607;48.520;-1.330;2023-09-19T14:21:53;99882.34;;;21.58;75.28
48796;BME280;34607;48.520;-1.330;2023-09-19T14:24:22;99883.78;;;21.67;75.48
48796;BME280;34607;48.520;-1.330;2023-09-19T14:26:49;99874.69;;;21.76;75.96
48796;BME280;34607;48.520;-1.330;2023-09-19T14:29:17;99873.66;;;21.80;75.71
48796;BME280;34607;48.520;-1.330;2023-09-19T14:31:45;99862.03;;;21.85;75.93
48796;BME280;34607;48.520;-1.330;2023-09-19T14:34:12;99866.78;;;21.76;75.33
48796;BME280;34607;48.520;-1.330;2023-09-19T14:36:40;99858.34;;;21.66;75.52
48796;BME280;34607;48.520;-1.330;2023-09-19T14:39:07;99861.16;;;21.61;75.77
48796;BME280;34607;48.520;-1.330;2023-09-19T14:41:36;99861.63;;;21.49;75.81
48796;BME280;34607;48.520;-1.330;2023-09-19T14:44:03;99861.53;;;21.50;75.95
48796;BME280;34607;48.520;-1.330;2023-09-19T14:46:31;99859.53;;;21.57;76.47
48796;BME280;34607;48.520;-1.330;2023-09-19T14:48:58;99843.31;;;21.44;76.66
48796;BME280;34607;48.520;-1.330;2023-09-19T14:51:25;99832.72;;;21.46;77.01
48796;BME280;34607;48.520;-1.330;2023-09-19T14:53:53;99841.53;;;21.45;76.24
48796;BME280;34607;48.520;-1.330;2023-09-19T14:56:20;99847.19;;;21.34;76.00
48796;BME280;34607;48.520;-1.330;2023-09-19T14:58:51;99840.81;;;21.16;76.78
48796;BME280;34607;48.520;-1.330;2023-09-19T15:01:18;99838.41;;;21.10;76.40
48796;BME280;34607;48.520;-1.330;2023-09-19T15:03:45;99848.75;;;21.14;76.50
48796;BME280;34607;48.520;-1.330;2023-09-19T15:06:14;99850.59;;;21.12;76.98
48796;BME280;34607;48.520;-1.330;2023-09-19T15:08:46;99849.69;;;21.13;77.51
48796;BME280;34607;48.520;-1.330;2023-09-19T15:11:14;99831.25;;;21.13;77.54
48796;BME280;34607;48.520;-1.330;2023-09-19T15:13:43;99835.88;;;21.07;76.43
48796;BME280;34607;48.520;-1.330;2023-09-19T15:16:12;99830.81;;;21.01;76.92
48796;BME280;34607;48.520;-1.330;2023-09-19T15:18:41;99828.84;;;21.07;77.14
48796;BME280;34607;48.520;-1.330;2023-09-19T15:21:10;99845.97;;;21.19;76.79
48796;BME280;34607;48.520;-1.330;2023-09-19T15:23:39;99841.78;;;21.13;76.48
48796;BME280;34607;48.520;-1.330;2023-09-19T15:26:07;99836.41;;;21.17;77.22
48796;BME280;34607;48.520;-1.330;2023-09-19T15:28:35;99831.47;;;21.07;76.93
48796;BME280;34607;48.520;-1.330;2023-09-19T15:31:03;99842.00;;;21.07;76.81
48796;BME280;34607;48.520;-1.330;2023-09-19T15:33:32;99844.31;;;21.17;76.98
48796;BME280;34607;48.520;-1.330;2023-09-19T15:36:03;99840.66;;;21.21;76.90
48796;BME280;34607;48.520;-1.330;2023-09-19T15:38:31;99846.28;;;21.35;77.04
48796;BME280;34607;48.520;-1.330;2023-09-19T15:40:58;99849.38;;;21.48;76.55
48796;BME280;34607;48.520;-1.330;2023-09-19T15:43:25;99852.06;;;21.45;76.21
48796;BME280;34607;48.520;-1.330;2023-09-19T15:45:53;99844.41;;;21.39;76.28
48796;BME280;34607;48.520;-1.330;2023-09-19T15:48:20;99826.34;;;21.28;76.57
48796;BME280;34607;48.520;-1.330;2023-09-19T15:50:49;99836.28;;;21.20;77.05
48796;BME280;34607;48.520;-1.330;2023-09-19T15:53:16;99828.53;;;21.17;77.29
48796;BME280;34607;48.520;-1.330;2023-09-19T15:55:43;99833.09;;;21.11;77.46
48796;BME280;34607;48.520;-1.330;2023-09-19T15:58:10;99834.91;;;21.09;77.88
48796;BME280;34607;48.520;-1.330;2023-09-19T16:00:40;99825.63;;;20.99;78.24
48796;BME280;34607;48.520;-1.330;2023-09-19T16:03:07;99833.78;;;20.91;77.82
48796;BME280;34607;48.520;-1.330;2023-09-19T16:05:35;99842.91;;;20.81;78.32
48796;BME280;34607;48.520;-1.330;2023-09-19T16:08:07;99829.75;;;20.81;78.49
48796;BME280;34607;48.520;-1.330;2023-09-19T16:10:37;99834.06;;;20.84;78.68
48796;BME280;34607;48.520;-1.330;2023-09-19T16:13:04;99838.72;;;20.75;78.69
48796;BME280;34607;48.520;-1.330;2023-09-19T16:15:31;99826.06;;;20.60;79.56
48796;BME280;34607;48.520;-1.330;2023-09-19T16:17:59;99817.56;;;20.52;79.47
48796;BME280;34607;48.520;-1.330;2023-09-19T16:20:28;99834.03;;;20.57;79.85
48796;BME280;34607;48.520;-1.330;2023-09-19T16:22:59;99834.19;;;20.52;79.80
48796;BME280;34607;48.520;-1.330;2023-09-19T16:25:28;99830.78;;;20.49;79.94
48796;BME280;34607;48.520;-1.330;2023-09-19T16:27:55;99834.50;;;20.43;80.43
48796;BME280;34607;48.520;-1.330;2023-09-19T16:30:22;99832.94;;;20.37;80.25
48796;BME280;34607;48.520;-1.330;2023-09-19T16:32:49;99838.13;;;20.39;80.49
48796;BME280;34607;48.520;-1.330;2023-09-19T16:35:16;99831.22;;;20.36;80.33
48796;BME280;34607;48.520;-1.330;2023-09-19T16:37:43;99838.28;;;20.34;80.97
48796;BME280;34607;48.520;-1.330;2023-09-19T16:40:11;99842.97;;;20.25;80.91
48796;BME280;34607;48.520;-1.330;2023-09-19T16:42:39;99839.72;;;20.16;81.39
48796;BME280;34607;48.520;-1.330;2023-09-19T16:45:08;99846.94;;;20.10;80.98
48796;BME280;34607;48.520;-1.330;2023-09-19T16:47:35;99838.28;;;20.06;80.94
48796;BME280;34607;48.520;-1.330;2023-09-19T16:50:03;99841.69;;;20.10;80.40
48796;BME280;34607;48.520;-1.330;2023-09-19T16:52:31;99843.59;;;20.05;80.60
48796;BME280;34607;48.520;-1.330;2023-09-19T16:54:58;99851.47;;;20.05;80.19
48796;BME280;34607;48.520;-1.330;2023-09-19T16:57:25;99836.81;;;19.97;80.24
48796;BME280;34607;48.520;-1.330;2023-09-19T16:59:54;99841.97;;;20.00;80.41
48796;BME280;34607;48.520;-1.330;2023-09-19T17:02:21;99846.50;;;19.95;80.09
48796;BME280;34607;48.520;-1.330;2023-09-19T17:04:48;99850.16;;;19.91;80.24
48796;BME280;34607;48.520;-1.330;2023-09-19T17:07:15;99843.25;;;19.87;79.99
48796;BME280;34607;48.520;-1.330;2023-09-19T17:09:42;99847.69;;;19.85;80.26
48796;BME280;34607;48.520;-1.330;2023-09-19T17:12:09;99839.94;;;19.80;81.24
48796;BME280;34607;48.520;-1.330;2023-09-19T17:14:38;99836.41;;;19.81;80.75
48796;BME280;34607;48.520;-1.330;2023-09-19T17:17:07;99837.28;;;19.82;81.00
48796;BME280;34607;48.520;-1.330;2023-09-19T17:19:34;99840.81;;;19.81;81.24
48796;BME280;34607;48.520;-1.330;2023-09-19T17:22:01;99835.56;;;19.81;81.27
48796;BME280;34607;48.520;-1.330;2023-09-19T17:24:28;99840.91;;;19.78;81.83
48796;BME280;34607;48.520;-1.330;2023-09-19T17:26:55;99828.66;;;19.77;82.21
48796;BME280;34607;48.520;-1.330;2023-09-19T17:29:22;99836.59;;;19.75;82.07
48796;BME280;34607;48.520;-1.330;2023-09-19T17:31:49;99836.59;;;19.75;82.03
48796;BME280;34607;48.520;-1.330;2023-09-19T17:34:18;99829.59;;;19.76;82.08
48796;BME280;34607;48.520;-1.330;2023-09-19T17:36:46;99830.53;;;19.72;82.43
48796;BME280;34607;48.520;-1.330;2023-09-19T17:39:13;99824.81;;;19.59;82.30
48796;BME280;34607;48.520;-1.330;2023-09-19T17:41:41;99834.53;;;19.55;82.79
48796;BME280;34607;48.520;-1.330;2023-09-19T17:44:08;99831.78;;;19.58;82.52
48796;BME280;34607;48.520;-1.330;2023-09-19T17:46:37;99830.94;;;19.58;82.21
48796;BME280;34607;48.520;-1.330;2023-09-19T17:49:04;99819.72;;;19.53;82.21
48796;BME280;34607;48.520;-1.330;2023-09-19T17:51:33;99825.72;;;19.56;82.94
48796;BME280;34607;48.520;-1.330;2023-09-19T17:54:00;99827.47;;;19.57;82.67
48796;BME280;34607;48.520;-1.330;2023-09-19T17:56:28;99828.34;;;19.56;83.15
48796;BME280;34607;48.520;-1.330;2023-09-19T17:58:55;99808.44;;;19.49;83.27
48796;BME280;34607;48.520;-1.330;2023-09-19T18:01:25;99832.81;;;19.54;83.66
48796;BME280;34607;48.520;-1.330;2023-09-19T18:03:53;99824.13;;;19.52;83.69
48796;BME280;34607;48.520;-1.330;2023-09-19T18:06:22;99815.44;;;19.50;83.82
48796;BME280;34607;48.520;-1.330;2023-09-19T18:08:51;99825.84;;;19.52;84.03
48796;BME280;34607;48.520;-1.330;2023-09-19T18:11:18;99820.69;;;19.50;84.01
48796;BME280;34607;48.520;-1.330;2023-09-19T18:13:50;99812.94;;;19.45;84.06
48796;BME280;34607;48.520;-1.330;2023-09-19T18:16:20;99815.56;;;19.45;84.36
48796;BME280;34607;48.520;-1.330;2023-09-19T18:18:49;99815.59;;;19.44;84.40
48796;BME280;34607;48.520;-1.330;2023-09-19T18:21:18;99807.03;;;19.37;84.66
48796;BME280;34607;48.520;-1.330;2023-09-19T18:23:45;99812.31;;;19.36;84.97
48796;BME280;34607;48.520;-1.330;2023-09-19T18:26:14;99805.25;;;19.38;84.69
48796;BME280;34607;48.520;-1.330;2023-09-19T18:28:41;99794.03;;;19.33;84.70
48796;BME280;34607;48.520;-1.330;2023-09-19T18:31:09;99793.28;;;19.27;85.18
48796;BME280;34607;48.520;-1.330;2023-09-19T18:33:37;99790.59;;;19.31;85.02
48796;BME280;34607;48.520;-1.330;2023-09-19T18:36:05;99794.22;;;19.26;84.87
48796;BME280;34607;48.520;-1.330;2023-09-19T18:38:34;99799.53;;;19.23;85.17
48796;BME280;34607;48.520;-1.330;2023-09-19T18:41:05;99797.00;;;19.20;85.05
48796;BME280;34607;48.520;-1.330;2023-09-19T18:43:35;99803.06;;;19.22;85.16
48796;BME280;34607;48.520;-1.330;2023-09-19T18:46:03;99755.03;;;18.89;85.43
48796;BME280;34607;48.520;-1.330;2023-09-19T18:48:35;99799.72;;;19.17;85.31
48796;BME280;34607;48.520;-1.330;2023-09-19T18:51:06;99799.00;;;19.11;85.39
48796;BME280;34607;48.520;-1.330;2023-09-19T18:53:34;99803.69;;;19.01;86.03
48796;BME280;34607;48.520;-1.330;2023-09-19T18:56:03;99810.78;;;18.97;86.69
48796;BME280;34607;48.520;-1.330;2023-09-19T18:58:30;99800.50;;;18.88;86.68
48796;BME280;34607;48.520;-1.330;2023-09-19T19:01:02;99807.47;;;18.89;86.53
48796;BME280;34607;48.520;-1.330;2023-09-19T19:03:29;99801.38;;;18.88;86.73
48796;BME280;34607;48.520;-1.330;2023-09-19T19:05:57;99809.28;;;18.87;87.01
48796;BME280;34607;48.520;-1.330;2023-09-19T19:08:24;99808.41;;;18.86;86.60
48796;BME280;34607;48.520;-1.330;2023-09-19T19:10:51;99808.44;;;18.85;86.72
48796;BME280;34607;48.520;-1.330;2023-09-19T19:13:19;99810.19;;;18.86;86.70
48796;BME280;34607;48.520;-1.330;2023-09-19T19:15:46;99805.13;;;18.78;87.43
48796;BME280;34607;48.520;-1.330;2023-09-19T19:18:14;99801.78;;;18.71;87.17
48796;BME280;34607;48.520;-1.330;2023-09-19T19:20:41;99802.72;;;18.69;87.60
48796;BME280;34607;48.520;-1.330;2023-09-19T19:23:09;99805.34;;;18.69;87.53
48796;BME280;34607;48.520;-1.330;2023-09-19T19:25:45;99795.94;;;18.60;87.33
48796;BME280;34607;48.520;-1.330;2023-09-19T19:28:13;99803.81;;;18.60;87.74
48796;BME280;34607;48.520;-1.330;2023-09-19T19:30:43;99799.44;;;18.61;87.66
48796;BME280;34607;48.520;-1.330;2023-09-19T19:33:10;99792.56;;;18.57;88.15
48796;BME280;34607;48.520;-1.330;2023-09-19T19:35:39;99797.75;;;18.58;87.76
48796;BME280;34607;48.520;-1.330;2023-09-19T19:38:07;99802.91;;;18.63;88.03
48796;BME280;34607;48.520;-1.330;2023-09-19T19:40:34;99801.31;;;18.56;88.44
48796;BME280;34607;48.520;-1.330;2023-09-19T19:43:02;99795.13;;;18.58;88.04
48796;BME280;34607;48.520;-1.330;2023-09-19T19:45:29;99804.03;;;18.52;88.45
48796;BME280;34607;48.520;-1.330;2023-09-19T19:47:59;99801.41;;;18.52;88.93
48796;BME280;34607;48.520;-1.330;2023-09-19T19:50:28;99801.34;;;18.54;88.92
48796;BME280;34607;48.520;-1.330;2023-09-19T19:52:56;99801.34;;;18.54;88.77
48796;BME280;34607;48.520;-1.330;2023-09-19T19:55:23;99767.72;;;18.37;88.77
48796;BME280;34607;48.520;-1.330;2023-09-19T19:57:53;99789.13;;;18.55;88.94
48796;BME280;34607;48.520;-1.330;2023-09-19T20:00:20;99800.28;;;18.63;88.65
48796;BME280;34607;48.520;-1.330;2023-09-19T20:02:48;99805.59;;;18.60;88.87
48796;BME280;34607;48.520;-1.330;2023-09-19T20:05:15;99802.22;;;18.55;89.36
48796;BME280;34607;48.520;-1.330;2023-09-19T20:07:43;99805.09;;;18.44;89.71
48796;BME280;34607;48.520;-1.330;2023-09-19T20:10:12;99813.91;;;18.41;89.65
48796;BME280;34607;48.520;-1.330;2023-09-19T20:12:42;99803.38;;;18.43;89.67
48796;BME280;34607;48.520;-1.330;2023-09-19T20:15:10;99806.91;;;18.42;89.81
48796;BME280;34607;48.520;-1.330;2023-09-19T20:17:38;99808.75;;;18.38;90.40
48796;BME280;34607;48.520;-1.330;2023-09-19T20:20:08;99764.03;;;18.08;90.49
48796;BME280;34607;48.520;-1.330;2023-09-19T20:22:41;99806.25;;;18.33;90.97
48796;BME280;34607;48.520;-1.330;2023-09-19T20:25:08;99801.84;;;18.34;90.97
48796;BME280;34607;48.520;-1.330;2023-09-19T20:27:38;99808.91;;;18.32;91.01
48796;BME280;34607;48.520;-1.330;2023-09-19T20:30:07;99810.75;;;18.28;91.48
48796;BME280;34607;48.520;-1.330;2023-09-19T20:32:35;99808.28;;;18.21;92.06
48796;BME280;34607;48.520;-1.330;2023-09-19T20:35:02;99799.59;;;18.19;92.01
48796;BME280;34607;48.520;-1.330;2023-09-19T20:37:30;99793.56;;;18.17;91.91
48796;BME280;34607;48.520;-1.330;2023-09-19T20:39:59;99806.56;;;18.20;92.46
48796;BME280;34607;48.520;-1.330;2023-09-19T20:42:26;99780.81;;;18.01;92.74
48796;BME280;34607;48.520;-1.330;2023-09-19T20:44:54;99810.03;;;18.22;92.74
48796;BME280;34607;48.520;-1.330;2023-09-19T20:47:23;99804.00;;;18.18;92.73